Time;durP1;ratioP1;P1;durP2;ratioP2;P2;SDS_P1;SDS_P2;PMS_P1;PMS_P2;Temp;Humidity;BMP_temperature;BMP_pressure;BME280_temperature;BME280_humidity;BME280_pressure;Samples;Min_cycle;Max_cycle;Signal;HPM_P1;HPM_P2
2021/12/31 00:00:32;;;;;;;7.03;2.77;;;;;;;12.64;100.00;101582.63;2097868;28;20031;-65
2021/12/31 00:01:32;;;;;;;8.93;3.10;;;;;;;12.64;100.00;101587.84;2106175;28;20274;-65
2021/12/31 00:02:33;;;;;;;9.80;3.17;;;;;;;12.64;100.00;101588.72;2106305;28;20051;-65
2021/12/31 00:03:33;;;;;;;9.03;3.30;;;;;;;12.62;100.00;101591.41;2106795;28;20036;-65
2021/12/31 00:04:33;;;;;;;6.00;2.40;;;;;;;12.64;99.82;101595.72;2097743;28;20036;-67
2021/12/31 00:05:33;;;;;;;8.07;3.33;;;;;;;12.64;99.98;101585.25;2097871;28;20489;-66
2021/12/31 00:06:34;;;;;;;15.50;4.60;;;;;;;12.60;100.00;101587.97;2106716;28;20027;-64
2021/12/31 00:07:35;;;;;;;8.05;3.22;;;;;;;12.61;99.46;101589.69;2097799;28;20035;-65
2021/12/31 00:08:35;;;;;;;7.00;3.08;;;;;;;12.64;99.52;101585.25;2097875;28;20067;-66
2021/12/31 00:09:36;;;;;;;9.07;2.90;;;;;;;12.66;99.44;101596.53;2106869;28;20020;-64
2021/12/31 00:10:38;;;;;;;6.32;3.00;;;;;;;12.64;99.53;101599.19;2106791;28;20027;-66
2021/12/31 00:11:38;;;;;;;6.78;2.92;;;;;;;12.65;99.32;101594.78;2106764;28;20028;-64
2021/12/31 00:12:40;;;;;;;9.00;3.00;;;;;;;12.66;98.98;101592.13;2106821;28;20020;-66
2021/12/31 00:13:41;;;;;;;9.98;3.05;;;;;;;12.67;99.05;101587.75;2097740;28;20078;-66
2021/12/31 00:14:41;;;;;;;8.03;3.33;;;;;;;12.68;98.91;101602.53;2097817;28;20077;-65
2021/12/31 00:15:41;;;;;;;10.20;3.00;;;;;;;12.66;99.03;101593.91;2106756;28;20068;-66
2021/12/31 00:16:42;;;;;;;7.73;2.97;;;;;;;12.68;99.00;101602.53;2106858;28;20069;-65
2021/12/31 00:17:42;;;;;;;9.27;3.00;;;;;;;12.68;98.75;101599.91;2106766;28;20340;-64
2021/12/31 00:18:42;;;;;;;6.90;2.90;;;;;;;12.68;98.96;101600.78;2106898;28;20024;-66
2021/12/31 00:19:45;;;;;;;9.43;3.03;;;;;;;12.67;98.71;101590.34;2106767;28;20399;-66
2021/12/31 00:20:45;;;;;;;7.72;3.20;;;;;;;12.67;98.78;101598.22;2106808;28;20369;-65
2021/12/31 00:21:48;;;;;;;7.80;2.77;;;;;;;12.64;98.89;101587.84;2106711;28;20023;-66
2021/12/31 00:23:51;;;;;;;10.77;3.10;;;;;;;12.67;98.38;101604.31;2106826;28;20127;-63
2021/12/31 00:24:52;;;;;;;8.50;3.10;;;;;;;12.72;97.79;101604.13;2106778;28;20039;-64
2021/12/31 00:25:53;;;;;;;;;;;;;;;12.76;97.74;101613.56;2107133;28;20481;-65
2021/12/31 00:26:53;;;;;;;8.18;3.05;;;;;;;12.76;97.78;101608.31;2106825;28;19912;-66
2021/12/31 00:27:54;;;;;;;7.93;2.93;;;;;;;12.73;97.73;101608.47;2106598;28;20039;-64
2021/12/31 00:28:54;;;;;;;6.03;3.17;;;;;;;12.77;97.37;101603.94;2106734;28;20028;-65
2021/12/31 00:29:55;;;;;;;9.97;3.90;;;;;;;12.79;97.30;101608.19;2106752;28;20469;-65
2021/12/31 00:30:55;;;;;;;6.87;2.83;;;;;;;12.80;97.02;101603.81;2097641;28;20074;-66
2021/12/31 00:31:57;;;;;;;7.20;2.72;;;;;;;12.79;96.79;101602.97;2097835;28;20056;-65
2021/12/31 00:32:58;;;;;;;8.83;2.90;;;;;;;12.79;96.89;101608.19;2106080;28;20056;-63
2021/12/31 00:33:58;;;;;;;10.20;3.28;;;;;;;12.76;97.55;101608.31;2106160;28;20028;-66
2021/12/31 00:34:58;;;;;;;10.80;2.80;;;;;;;12.73;97.42;101604.06;2106699;28;20059;-64
2021/12/31 00:35:59;;;;;;;8.07;2.70;;;;;;;12.74;97.33;101604.91;2106576;28;20024;-65
2021/12/31 00:36:59;;;;;;;6.30;2.43;;;;;;;12.78;97.04;101606.50;2106717;28;20290;-66
2021/12/31 00:38:00;;;;;;;9.80;2.77;;;;;;;12.79;96.79;101607.38;2106690;28;20473;-66
2021/12/31 00:39:00;;;;;;;10.82;3.03;;;;;;;12.76;97.02;101605.69;2106661;28;20161;-66
2021/12/31 00:40:03;;;;;;;9.50;3.10;;;;;;;12.74;97.19;101608.38;2106688;28;20023;-65
2021/12/31 00:41:03;;;;;;;6.35;2.67;;;;;;;12.73;97.43;101609.28;2097399;28;20425;-66
2021/12/31 00:42:04;;;;;;;9.13;3.30;;;;;;;12.76;96.68;101605.69;2097676;28;20125;-65
2021/12/31 00:43:06;;;;;;;9.95;3.17;;;;;;;12.80;96.50;101609.06;2106575;28;20504;-65
2021/12/31 00:44:07;;;;;;;5.20;2.65;;;;;;;12.80;96.59;101612.53;2106566;28;20023;-64
2021/12/31 00:45:10;;;;;;;7.57;2.70;;;;;;;12.79;96.42;101613.44;2106662;28;20024;-65
2021/12/31 00:46:10;;;;;;;9.32;2.42;;;;;;;12.77;96.71;101610.03;2106507;28;20035;-66
2021/12/31 00:47:10;;;;;;;8.77;2.77;;;;;;;12.77;96.70;101609.19;2106591;28;20059;-65
2021/12/31 00:48:12;;;;;;;8.30;3.37;;;;;;;12.76;96.49;101603.06;2106553;28;20054;-65
2021/12/31 00:49:13;;;;;;;5.03;2.63;;;;;;;12.76;96.60;101608.31;2108942;28;20118;-66
2021/12/31 00:50:14;;;;;;;;;;;;;;;12.73;97.00;101608.47;2109740;28;20032;-66
2021/12/31 00:51:14;;;;;;;9.15;2.78;;;;;;;12.72;96.94;101607.59;2109540;28;19931;-66
2021/12/31 00:52:15;;;;;;;8.50;2.97;;;;;;;12.72;97.10;101607.59;2109455;28;20032;-66
2021/12/31 00:53:15;;;;;;;9.88;3.50;;;;;;;12.72;96.88;101606.75;2109482;28;20031;-66
2021/12/31 00:54:15;;;;;;;5.33;2.87;;;;;;;12.71;96.85;101605.03;2100053;28;20027;-66
2021/12/31 00:55:16;;;;;;;12.20;3.33;;;;;;;12.74;96.44;101604.91;2100448;28;20039;-65
2021/12/31 00:56:17;;;;;;;9.97;2.77;;;;;;;12.75;96.47;101604.88;2108638;28;20028;-65
2021/12/31 00:57:17;;;;;;;10.40;3.03;;;;;;;12.72;96.70;101607.59;2108783;28;20020;-66
2021/12/31 00:58:17;;;;;;;7.13;2.58;;;;;;;12.72;96.66;101598.88;2109319;28;20032;-65
2021/12/31 00:59:18;;;;;;;9.23;2.67;;;;;;;12.75;96.30;101606.63;2109353;28;20020;-65
2021/12/31 01:00:18;;;;;;;6.67;3.13;;;;;;;12.77;96.29;101610.03;2109219;28;20042;-64
2021/12/31 01:01:21;;;;;;;6.97;2.22;;;;;;;12.77;96.28;101604.81;2109294;28;20059;-64
2021/12/31 01:02:24;;;;;;;7.90;2.42;;;;;;;12.77;95.89;101604.81;2109310;28;20063;-65
2021/12/31 01:03:24;;;;;;;10.05;2.60;;;;;;;12.76;96.18;101610.94;2109163;28;20141;-65
2021/12/31 01:04:25;;;;;;;7.63;2.83;;;;;;;12.76;96.11;101610.94;2100253;28;20361;-66
2021/12/31 01:05:25;;;;;;;8.90;2.78;;;;;;;12.76;96.34;101610.94;2100312;28;20024;-65
2021/12/31 01:06:25;;;;;;;5.93;2.60;;;;;;;12.76;95.88;101613.56;2109367;28;20480;-66
2021/12/31 01:07:27;;;;;;;6.87;3.13;;;;;;;12.75;96.01;101604.00;2100246;28;20078;-65
2021/12/31 01:08:28;;;;;;;6.57;2.95;;;;;;;12.75;96.17;101606.63;2100479;28;20024;-65
2021/12/31 01:09:30;;;;;;;7.77;3.00;;;;;;;12.74;96.27;101612.78;2100251;28;20024;-65
2021/12/31 01:10:31;;;;;;;5.95;2.25;;;;;;;12.78;95.95;101611.75;2100535;28;20032;-65
2021/12/31 01:11:31;;;;;;;7.18;2.50;;;;;;;12.78;96.15;101608.25;2100183;28;20024;-65
2021/12/31 01:12:32;;;;;;;5.97;2.47;;;;;;;12.76;96.23;101608.31;2100220;28;20020;-65
2021/12/31 01:13:54;;;;;;;7.30;2.58;;;;;;;12.71;96.15;101610.28;2091986;28;20023;-65
2021/12/31 01:16:00;;;;;;;5.60;2.53;;;;;;;12.73;96.26;101616.31;2109721;28;20465;-65
2021/12/31 01:17:04;;;;;;;6.65;3.10;;;;;;;12.73;96.03;101604.06;2109720;28;20024;-65
2021/12/31 01:20:13;;;;;;;5.03;2.40;;;;;;;12.74;95.81;101610.16;2109473;28;20072;-67
2021/12/31 01:21:17;;;;;;;9.45;2.55;;;;;;;12.75;95.54;101607.50;2109295;28;20038;-65
2021/12/31 01:22:30;;;;;;;7.60;2.50;;;;;;;12.73;95.92;101600.59;2109275;28;20481;-66
2021/12/31 01:23:34;;;;;;;11.55;2.60;;;;;;;12.72;95.68;101602.38;2100093;28;20029;-65
2021/12/31 01:24:35;;;;;;;8.77;2.58;;;;;;;12.72;96.08;101596.25;2100654;28;20370;-65
2021/12/31 01:25:36;;;;;;;6.97;1.70;;;;;;;12.70;95.75;101593.69;2109242;28;20034;-65
2021/12/31 01:26:36;;;;;;;9.85;3.28;;;;;;;12.69;96.55;101596.41;2109915;28;20028;-66
2021/12/31 01:27:38;;;;;;;7.43;3.30;;;;;;;12.70;96.18;101592.88;2109054;28;20119;-64
2021/12/31 01:28:39;;;;;;;5.80;2.47;;;;;;;12.71;95.85;101591.94;2100130;28;20017;-65
2021/12/31 01:29:39;;;;;;;6.27;2.73;;;;;;;12.71;95.49;101595.44;2100217;28;20056;-66
2021/12/31 01:30:40;;;;;;;9.80;3.40;;;;;;;12.75;95.45;101593.53;2109258;28;20054;-65
2021/12/31 01:31:40;;;;;;;7.17;2.63;;;;;;;12.76;95.22;101597.84;2109187;28;20039;-66
2021/12/31 01:32:42;;;;;;;6.93;2.27;;;;;;;12.75;95.49;101597.00;2109201;28;20031;-65
2021/12/31 01:33:42;;;;;;;8.48;2.83;;;;;;;12.74;95.88;101592.66;2109291;28;20027;-65
2021/12/31 01:34:43;;;;;;;7.70;2.43;;;;;;;12.72;95.63;101596.25;2109121;28;20058;-64
2021/12/31 01:35:44;;;;;;;8.93;2.65;;;;;;;12.70;95.20;101593.69;2109252;28;20505;-63
2021/12/31 01:36:44;;;;;;;8.93;2.47;;;;;;;12.73;94.91;101595.38;2109233;28;20095;-65
2021/12/31 01:37:44;;;;;;;6.17;2.83;;;;;;;12.75;95.09;101597.00;2100222;28;20074;-64
2021/12/31 01:38:45;;;;;;;4.67;2.13;;;;;;;12.76;95.45;101592.59;2100265;28;20091;-65
2021/12/31 01:39:45;;;;;;;6.28;2.58;;;;;;;12.77;95.29;101604.81;2100245;28;20025;-66
2021/12/31 01:40:46;;;;;;;5.90;2.37;;;;;;;12.73;95.10;101593.59;2100533;28;20031;-66
2021/12/31 01:41:46;;;;;;;8.10;2.80;;;;;;;12.80;95.09;101607.28;2109230;28;20024;-64
2021/12/31 01:42:46;;;;;;;8.33;2.33;;;;;;;12.81;94.53;101600.28;2109207;28;20102;-65
2021/12/31 01:43:47;;;;;;;5.90;2.47;;;;;;;12.79;95.13;101597.72;2109145;28;20377;-66
2021/12/31 01:44:56;;;;;;;7.03;2.25;;;;;;;12.81;94.92;101601.16;2109212;28;20020;-66
2021/12/31 01:45:59;;;;;;;7.15;2.20;;;;;;;12.77;94.86;101599.56;2100083;28;20043;-64
2021/12/31 01:47:04;;;;;;;4.95;2.35;;;;;;;12.79;94.80;101602.13;2100512;28;20051;-65
2021/12/31 01:48:08;;;;;;;7.57;2.25;;;;;;;12.82;94.57;101600.22;2109169;28;20026;-66
2021/12/31 01:49:18;;;;;;;6.63;2.45;;;;;;;12.80;94.79;101609.91;2109071;28;20099;-67
2021/12/31 01:50:19;;;;;;;7.28;2.35;;;;;;;12.80;94.52;101609.91;2109270;28;20024;-67
2021/12/31 01:51:19;;;;;;;9.50;2.97;;;;;;;12.82;94.55;101610.72;2109139;28;20066;-66
2021/12/31 01:52:20;;;;;;;7.37;3.00;;;;;;;12.82;94.38;101613.31;2109136;28;20032;-66
2021/12/31 01:53:26;;;;;;;9.63;2.70;;;;;;;12.82;94.72;101607.22;2109231;28;20020;-67
2021/12/31 01:54:26;;;;;;;6.47;2.30;;;;;;;12.80;94.42;101604.66;2109113;28;20038;-68
2021/12/31 01:55:31;;;;;;;7.70;2.70;;;;;;;12.77;94.77;101604.81;2100219;28;20021;-67
2021/12/31 01:56:33;;;;;;;10.68;2.83;;;;;;;12.77;94.54;101607.44;2100661;28;20125;-67
2021/12/31 01:57:34;;;;;;;7.45;2.78;;;;;;;12.80;94.48;101604.66;2109166;28;20503;-66
2021/12/31 01:58:34;;;;;;;8.23;2.40;;;;;;;12.82;94.12;101613.31;2109198;28;20032;-66
2021/12/31 01:59:37;;;;;;;8.17;2.50;;;;;;;12.82;94.42;101615.09;2109151;28;20464;-67
2021/12/31 02:00:38;;;;;;;7.75;2.60;;;;;;;12.79;94.26;101618.69;2106699;28;20488;-67
2021/12/31 02:01:39;;;;;;;;;;;;;;;12.81;94.36;101616.88;2108151;28;20492;-65
2021/12/31 02:02:44;;;;;;;5.63;2.40;;;;;;;12.79;94.38;101618.69;2107764;28;19939;-66
2021/12/31 02:03:45;;;;;;;5.65;2.33;;;;;;;12.80;94.24;101624.78;2107654;28;20020;-66
2021/12/31 02:04:45;;;;;;;8.77;3.38;;;;;;;12.82;93.94;101615.94;2107048;28;20472;-66
2021/12/31 02:05:45;;;;;;;7.10;2.30;;;;;;;12.82;94.66;101610.72;2107149;28;20436;-65
2021/12/31 02:06:45;;;;;;;5.60;2.37;;;;;;;12.82;94.55;101613.31;2107776;28;20054;-66
2021/12/31 02:07:46;;;;;;;8.53;3.50;;;;;;;12.80;93.97;101615.13;2107710;28;20020;-66
2021/12/31 02:08:46;;;;;;;8.60;2.57;;;;;;;12.82;94.14;101607.22;2098731;28;20090;-65
2021/12/31 02:09:50;;;;;;;8.57;2.30;;;;;;;12.83;93.94;101614.19;2098756;28;20401;-65
2021/12/31 02:10:51;;;;;;;7.00;2.25;;;;;;;12.79;94.44;101618.69;2107662;28;20282;-66
2021/12/31 02:11:53;;;;;;;;;;;;;;;12.78;94.64;101611.75;2108089;28;20034;-64
2021/12/31 02:12:55;;;;;;;8.55;2.58;;;;;;;12.78;94.36;101614.38;2107723;28;20136;-67
2021/12/31 02:13:56;;;;;;;5.30;2.60;;;;;;;12.78;94.03;101616.97;2107530;28;20461;-65
2021/12/31 02:14:56;;;;;;;;;;;;;;;12.80;94.50;101614.31;2108153;28;20517;-66
2021/12/31 02:15:57;;;;;;;5.80;2.53;;;;;;;12.77;94.19;101619.66;2107689;28;19916;-65
2021/12/31 02:16:57;;;;;;;7.30;2.30;;;;;;;12.80;93.71;101615.13;2107638;28;20043;-67
2021/12/31 02:17:59;;;;;;;8.10;2.40;;;;;;;12.81;93.83;101616.00;2107626;28;20278;-67
2021/12/31 02:19:11;;;;;;;6.72;2.70;;;;;;;12.80;93.99;101617.75;2107654;28;20396;-66
2021/12/31 02:20:12;;;;;;;9.73;2.88;;;;;;;12.78;94.15;101618.75;2107589;28;20035;-67
2021/12/31 02:21:13;;;;;;;9.85;3.05;;;;;;;12.74;94.64;101616.22;2107680;28;20024;-66
2021/12/31 02:22:13;;;;;;;8.63;2.42;;;;;;;12.72;94.61;101617.22;2107668;28;20111;-65
2021/12/31 02:23:26;;;;;;;9.67;3.07;;;;;;;12.75;94.32;101611.84;2107500;28;20382;-66
2021/12/31 02:24:26;;;;;;;8.07;2.72;;;;;;;12.75;94.14;101606.63;2098500;28;20578;-65
2021/12/31 02:25:27;;;;;;;9.13;2.80;;;;;;;12.75;94.31;101612.72;2098593;28;20029;-65
2021/12/31 02:26:28;;;;;;;;;;;;;;;12.78;94.58;101614.38;2108010;28;20028;-66
2021/12/31 02:27:28;;;;;;;8.82;2.75;;;;;;;12.77;94.14;101612.66;2107401;28;19958;-67
2021/12/31 02:28:28;;;;;;;8.10;3.50;;;;;;;12.76;94.15;101608.31;2107583;28;20453;-66
2021/12/31 02:29:28;;;;;;;8.13;2.73;;;;;;;12.77;93.82;101609.19;2107433;28;20042;-65
2021/12/31 02:30:29;;;;;;;6.00;2.30;;;;;;;12.81;93.42;101610.75;2107645;28;20089;-66
2021/12/31 02:31:30;;;;;;;9.35;2.53;;;;;;;12.80;93.80;101609.91;2098495;28;20024;-67
2021/12/31 02:32:30;;;;;;;6.38;2.55;;;;;;;12.79;93.88;101612.59;2098629;28;20039;-66
2021/12/31 02:33:31;;;;;;;7.20;2.30;;;;;;;12.78;93.70;101611.75;2107587;28;20479;-67
2021/12/31 02:34:31;;;;;;;6.18;2.10;;;;;;;12.79;93.51;101612.59;2107558;28;20107;-66
2021/12/31 02:35:33;;;;;;;9.83;2.27;;;;;;;12.76;93.73;101605.69;2107576;28;20028;-67
2021/12/31 02:36:33;;;;;;;5.65;2.50;;;;;;;12.75;94.00;101601.38;2098601;28;20028;-67
2021/12/31 02:37:34;;;;;;;6.03;2.30;;;;;;;12.75;94.00;101601.38;2098383;28;20028;-66
2021/12/31 02:38:34;;;;;;;5.20;2.33;;;;;;;12.78;93.84;101600.41;2098575;28;20029;-66
2021/12/31 02:39:38;;;;;;;6.43;2.57;;;;;;;12.77;93.86;101603.94;2106974;28;20032;-65
2021/12/31 02:40:39;;;;;;;8.35;2.85;;;;;;;12.77;93.56;101602.19;2107482;28;20028;-67
2021/12/31 02:41:39;;;;;;;6.45;2.22;;;;;;;12.78;93.44;101601.28;2107544;28;20470;-67
2021/12/31 02:42:41;;;;;;;6.37;2.73;;;;;;;12.79;93.65;101605.59;2107493;28;20022;-67
2021/12/31 02:43:41;;;;;;;7.20;2.50;;;;;;;12.76;93.66;101597.84;2107371;28;20032;-67
2021/12/31 02:44:42;;;;;;;8.07;2.80;;;;;;;12.78;93.63;101596.03;2107369;28;20404;-66
2021/12/31 02:45:43;;;;;;;6.75;3.40;;;;;;;12.79;93.47;101597.72;2098404;28;20481;-67
2021/12/31 02:46:43;;;;;;;6.13;2.53;;;;;;;12.78;93.31;101595.16;2090130;28;20025;-66
2021/12/31 02:47:45;;;;;;;5.80;2.50;;;;;;;12.78;93.16;101600.41;2098455;28;20021;-66
2021/12/31 02:48:55;;;;;;;8.93;2.40;;;;;;;12.78;93.19;101601.28;2107445;28;20036;-66
2021/12/31 02:49:55;;;;;;;13.95;2.50;;;;;;;12.76;93.50;101595.22;2107292;28;20043;-66
2021/12/31 02:50:57;;;;;;;8.03;2.57;;;;;;;12.75;93.65;101596.16;2107420;28;20020;-66
2021/12/31 02:52:02;;;;;;;4.93;2.50;;;;;;;12.70;93.65;101590.25;2098293;28;20508;-64
2021/12/31 02:53:11;;;;;;;5.63;2.33;;;;;;;12.68;94.28;101594.69;2098956;28;20024;-66
2021/12/31 02:54:13;;;;;;;7.78;2.15;;;;;;;12.67;94.00;101598.22;2107390;28;20028;-66
2021/12/31 02:55:15;;;;;;;6.85;2.42;;;;;;;12.67;94.15;101588.59;2107458;28;20399;-66
2021/12/31 02:56:16;;;;;;;7.18;2.33;;;;;;;12.68;93.89;101597.28;2098249;28;20174;-65
2021/12/31 02:57:20;;;;;;;5.60;2.45;;;;;;;12.66;94.00;101593.91;2098512;28;20493;-66
2021/12/31 02:58:20;;;;;;;4.35;2.15;;;;;;;12.66;93.85;101596.53;2107317;28;20027;-66
2021/12/31 02:59:20;;;;;;;10.33;2.73;;;;;;;12.66;94.30;101597.34;2098084;28;20449;-66
2021/12/31 03:00:21;;;;;;;6.20;2.23;;;;;;;12.66;94.04;101596.53;2098433;28;20024;-65
2021/12/31 03:01:21;;;;;;;6.60;2.70;;;;;;;12.67;94.07;101599.09;2107241;28;20020;-64
2021/12/31 03:02:24;;;;;;;6.73;3.03;;;;;;;12.69;94.09;101593.78;2107306;28;20050;-66
2021/12/31 03:03:25;;;;;;;7.82;2.85;;;;;;;12.68;94.05;101597.28;2107171;28;20304;-66
2021/12/31 03:04:27;;;;;;;7.35;2.83;;;;;;;12.69;93.87;101593.78;2098229;28;20488;-66
2021/12/31 03:05:28;;;;;;;8.52;2.50;;;;;;;12.71;93.56;101591.94;2098190;28;20102;-66
2021/12/31 03:06:29;;;;;;;7.45;2.30;;;;;;;12.71;93.64;101589.31;2098263;28;20028;-66
2021/12/31 03:07:30;;;;;;;7.53;2.22;;;;;;;12.70;93.79;101591.06;2106664;28;20036;-67
2021/12/31 03:08:35;;;;;;;8.38;2.80;;;;;;;12.69;93.63;101591.16;2098217;28;20146;-67
2021/12/31 03:09:38;;;;;;;10.35;2.40;;;;;;;12.70;93.72;101592.88;2098967;28;20032;-67
2021/12/31 03:10:40;;;;;;;5.53;2.47;;;;;;;12.70;93.93;101595.47;2098253;28;20019;-67
2021/12/31 03:11:42;;;;;;;5.22;2.63;;;;;;;12.68;93.77;101598.16;2098152;28;20017;-66
2021/12/31 03:12:42;;;;;;;11.15;2.80;;;;;;;12.66;93.85;101591.28;2107264;28;20099;-66
2021/12/31 03:13:42;;;;;;;7.40;2.83;;;;;;;12.63;93.90;101592.25;2107273;28;20020;-67
2021/12/31 03:14:45;;;;;;;7.20;2.50;;;;;;;12.63;94.19;101592.25;2107196;28;20026;-66
2021/12/31 03:15:46;;;;;;;7.10;2.25;;;;;;;12.65;93.82;101584.31;2106500;28;20024;-66
2021/12/31 03:16:47;;;;;;;6.03;2.72;;;;;;;12.68;93.92;101589.44;2106734;28;20036;-66
2021/12/31 03:17:48;;;;;;;8.60;2.70;;;;;;;12.67;93.73;101585.13;2107133;28;20024;-67
2021/12/31 03:18:50;;;;;;;10.13;3.05;;;;;;;12.67;93.81;101587.75;2107210;28;20031;-67
2021/12/31 03:19:59;;;;;;;7.13;2.33;;;;;;;12.62;93.65;101586.16;2098113;28;20016;-67
2021/12/31 03:21:10;;;;;;;6.60;2.53;;;;;;;12.61;93.78;101584.47;2099476;28;20531;-64
2021/12/31 03:22:10;;;;;;;9.52;2.53;;;;;;;12.64;93.86;101586.09;2107185;28;20032;-67
2021/12/31 03:23:11;;;;;;;5.97;2.42;;;;;;;12.61;93.80;101588.84;2107107;28;20446;-67
2021/12/31 03:24:11;;;;;;;6.40;2.43;;;;;;;12.62;93.57;101585.28;2107158;28;20044;-66
2021/12/31 03:25:11;;;;;;;9.17;2.97;;;;;;;12.61;93.65;101578.38;2107161;28;20056;-65
2021/12/31 03:26:12;;;;;;;8.37;2.63;;;;;;;12.59;93.91;101586.28;2098091;28;20471;-66
2021/12/31 03:27:12;;;;;;;8.30;2.73;;;;;;;12.58;93.60;101581.97;2098002;28;20029;-68
2021/12/31 03:28:12;;;;;;;4.90;2.60;;;;;;;12.55;93.79;101584.69;2107182;28;20285;-66
2021/12/31 03:29:12;;;;;;;8.17;2.83;;;;;;;12.54;93.83;101577.75;2107196;28;20461;-66
2021/12/31 03:30:15;;;;;;;8.00;2.70;;;;;;;12.54;94.37;101579.50;2107073;28;20032;-66
2021/12/31 03:31:16;;;;;;;9.98;2.83;;;;;;;12.50;94.27;101581.41;2107141;28;20027;-66
2021/12/31 03:32:16;;;;;;;8.90;2.57;;;;;;;12.48;94.89;101575.38;2107124;28;20028;-66
2021/12/31 03:33:17;;;;;;;5.33;2.20;;;;;;;12.45;94.50;101573.72;2107185;28;20035;-66
2021/12/31 03:34:17;;;;;;;7.78;2.72;;;;;;;12.48;94.40;101575.38;2097997;28;20020;-65
2021/12/31 03:35:17;;;;;;;6.73;2.30;;;;;;;12.49;94.07;101575.31;2098112;28;20017;-65
2021/12/31 03:36:18;;;;;;;10.40;2.97;;;;;;;12.51;93.80;101583.09;2107025;28;20113;-67
2021/12/31 03:37:18;;;;;;;8.70;2.40;;;;;;;12.52;94.37;101579.56;2107079;28;20051;-66
2021/12/31 03:38:18;;;;;;;11.53;3.00;;;;;;;12.52;94.11;101582.19;2097896;28;20043;-66
2021/12/31 03:39:18;;;;;;;7.53;2.80;;;;;;;12.49;95.04;101584.94;2089758;28;20064;-67
2021/12/31 03:40:19;;;;;;;7.73;2.40;;;;;;;12.45;94.40;101580.72;2097948;28;20025;-67
2021/12/31 03:41:20;;;;;;;9.57;3.00;;;;;;;12.46;94.35;101585.06;2098056;28;20041;-65
2021/12/31 03:42:20;;;;;;;6.05;2.85;;;;;;;12.47;94.18;101573.66;2107044;28;20024;-66
2021/12/31 03:43:20;;;;;;;8.23;2.90;;;;;;;12.45;94.70;101575.47;2106936;28;20385;-66
2021/12/31 03:44:21;;;;;;;6.33;2.33;;;;;;;12.43;94.81;101574.69;2097988;28;20084;-66
2021/12/31 03:45:21;;;;;;;7.27;2.30;;;;;;;12.41;94.94;101566.03;2098007;28;20103;-65
2021/12/31 03:46:22;;;;;;;10.40;3.27;;;;;;;12.42;94.65;101570.38;2106909;28;20097;-67
2021/12/31 03:47:22;;;;;;;6.07;2.72;;;;;;;12.44;94.23;101565.94;2106848;28;20020;-67
2021/12/31 03:48:22;;;;;;;9.33;3.07;;;;;;;12.44;94.35;101560.69;2106944;28;20048;-67
2021/12/31 03:49:23;;;;;;;8.80;3.07;;;;;;;12.44;93.89;101564.16;2106918;28;20035;-69
2021/12/31 03:50:23;;;;;;;8.10;2.40;;;;;;;12.44;94.24;101565.94;2106842;28;20508;-66
2021/12/31 03:51:24;;;;;;;6.17;2.57;;;;;;;12.41;94.29;101556.44;2106931;28;20020;-67
2021/12/31 03:52:24;;;;;;;7.45;2.78;;;;;;;12.38;94.80;101555.72;2106888;28;20028;-67
2021/12/31 03:53:24;;;;;;;5.17;2.07;;;;;;;12.33;94.85;101564.59;2106945;28;20089;-67
2021/12/31 03:54:24;;;;;;;10.63;3.00;;;;;;;12.30;95.06;101564.69;2106909;28;20036;-66
2021/12/31 03:55:25;;;;;;;9.47;2.97;;;;;;;12.32;95.30;101556.78;2106911;28;20032;-67
2021/12/31 03:56:30;;;;;;;9.50;2.90;;;;;;;12.30;95.10;101558.59;2106909;28;20046;-67
2021/12/31 03:57:30;;;;;;;4.80;2.88;;;;;;;12.27;95.73;101559.59;2106810;28;20027;-67
2021/12/31 03:58:31;;;;;;;8.20;2.90;;;;;;;12.25;95.46;101565.78;2106916;28;20492;-67
2021/12/31 03:59:31;;;;;;;7.03;2.70;;;;;;;12.27;95.26;101564.81;2106841;28;20491;-66
2021/12/31 04:00:31;;;;;;;8.53;2.53;;;;;;;12.27;95.24;101563.94;2097693;28;20048;-66
2021/12/31 04:01:31;;;;;;;7.07;2.60;;;;;;;12.33;95.22;101569.81;2097865;28;20146;-67
2021/12/31 04:02:32;;;;;;;8.83;2.60;;;;;;;12.33;95.04;101564.59;2106783;28;20034;-67
2021/12/31 04:03:32;;;;;;;7.87;2.60;;;;;;;12.35;94.78;101567.13;2097687;28;20066;-66
2021/12/31 04:04:32;;;;;;;5.77;2.77;;;;;;;12.35;94.79;101573.22;2089519;28;20028;-66
2021/12/31 04:05:33;;;;;;;4.20;2.77;;;;;;;12.36;94.98;101568.84;2097845;28;20056;-67
2021/12/31 04:06:34;;;;;;;8.32;3.00;;;;;;;12.34;95.11;101566.28;2106875;28;20469;-66
2021/12/31 04:07:34;;;;;;;8.50;3.00;;;;;;;12.36;95.12;101568.84;2106814;28;20477;-68
2021/12/31 04:08:35;;;;;;;8.98;3.22;;;;;;;12.38;94.82;101569.63;2106802;28;20024;-66
2021/12/31 04:09:35;;;;;;;11.53;2.70;;;;;;;12.40;94.68;101570.44;2106783;28;20103;-67
2021/12/31 04:10:35;;;;;;;7.83;2.80;;;;;;;12.40;94.82;101564.34;2106835;28;20028;-67
2021/12/31 04:11:36;;;;;;;9.20;2.55;;;;;;;12.39;94.84;101568.75;2106782;28;20062;-66
2021/12/31 04:12:36;;;;;;;6.53;3.00;;;;;;;12.38;94.91;101571.41;2106744;28;20097;-67
2021/12/31 04:13:36;;;;;;;7.30;3.33;;;;;;;12.40;94.65;101564.34;2106705;28;20027;-66
2021/12/31 04:14:37;;;;;;;5.77;2.50;;;;;;;12.43;94.49;101569.47;2106655;28;20020;-67
2021/12/31 04:15:37;;;;;;;9.03;3.00;;;;;;;12.41;94.68;101569.53;2106818;28;20311;-67
2021/12/31 04:16:37;;;;;;;6.97;2.57;;;;;;;12.38;95.09;101572.25;2106692;28;20507;-68
2021/12/31 04:17:40;;;;;;;5.40;2.83;;;;;;;12.39;95.00;101567.88;2106745;28;20282;-66
2021/12/31 04:18:40;;;;;;;6.07;3.05;;;;;;;12.38;94.96;101567.00;2097936;28;20020;-68
2021/12/31 04:19:42;;;;;;;6.10;2.10;;;;;;;12.39;94.76;101570.50;2097762;28;20393;-67
2021/12/31 04:20:45;;;;;;;5.97;3.13;;;;;;;12.38;94.83;101571.41;2106798;28;20024;-67
2021/12/31 04:21:45;;;;;;;8.85;3.08;;;;;;;12.39;94.81;101573.13;2106718;28;20392;-67
2021/12/31 04:22:53;;;;;;;9.03;3.00;;;;;;;12.38;94.70;101576.66;2106740;28;20103;-66
2021/12/31 04:24:26;;;;;;;6.78;2.78;;;;;;;12.38;94.99;101581.88;2096925;28;20055;-68
2021/12/31 04:25:14;;;;;;;7.53;2.70;;;;;;;12.41;94.95;101571.28;2100383;28;20044;-65
2021/12/31 04:26:15;;;;;;;5.67;2.93;;;;;;;12.41;94.94;101573.88;2106660;28;20035;-68
2021/12/31 04:27:16;;;;;;;5.90;2.75;;;;;;;12.40;94.77;101577.44;2106481;28;20039;-67
2021/12/31 04:28:16;;;;;;;7.43;3.50;;;;;;;12.41;95.00;101576.50;2106659;28;20032;-67
2021/12/31 04:29:16;;;;;;;7.20;3.10;;;;;;;12.39;94.82;101575.72;2106743;28;20106;-67
2021/12/31 04:30:17;;;;;;;10.37;3.30;;;;;;;12.38;94.69;101571.41;2106700;28;20028;-67
2021/12/31 04:31:18;;;;;;;7.18;3.17;;;;;;;12.39;94.75;101573.13;2106614;28;20040;-65
2021/12/31 04:32:20;;;;;;;8.50;2.77;;;;;;;12.40;94.91;101570.44;2105884;28;20127;-66
2021/12/31 04:33:20;;;;;;;10.75;3.33;;;;;;;12.40;94.62;101562.59;2106035;28;20042;-66
2021/12/31 04:34:20;;;;;;;11.83;3.53;;;;;;;12.42;94.97;101565.16;2106606;28;20024;-66
2021/12/31 04:35:21;;;;;;;7.00;2.63;;;;;;;12.41;94.53;101563.41;2106636;28;20039;-66
2021/12/31 04:36:21;;;;;;;5.97;3.27;;;;;;;12.41;94.61;101566.03;2106654;28;20031;-65
2021/12/31 04:37:21;;;;;;;6.80;2.63;;;;;;;12.40;95.11;101565.19;2097580;28;20111;-66
2021/12/31 04:38:22;;;;;;;9.63;2.60;;;;;;;12.40;94.91;101559.09;2097712;28;20274;-65
2021/12/31 04:39:22;;;;;;;6.70;3.13;;;;;;;12.39;94.58;101560.03;2106567;28;20020;-67
2021/12/31 04:40:22;;;;;;;9.80;3.00;;;;;;;12.39;94.58;101562.66;2106742;28;20492;-67
2021/12/31 04:41:23;;;;;;;7.97;2.70;;;;;;;12.39;94.93;101553.03;2106796;28;20277;-67
2021/12/31 04:42:23;;;;;;;11.10;2.90;;;;;;;12.38;94.91;101556.53;2097626;28;20481;-67
2021/12/31 04:43:23;;;;;;;7.87;3.80;;;;;;;12.36;94.77;101548.75;2097575;28;20090;-67
2021/12/31 04:44:24;;;;;;;4.87;2.70;;;;;;;12.35;95.08;101552.28;2105948;28;20096;-66
2021/12/31 04:45:25;;;;;;;9.00;3.50;;;;;;;12.34;95.09;101553.22;2106652;28;20381;-67
2021/12/31 04:46:25;;;;;;;6.68;3.17;;;;;;;12.34;95.20;101547.97;2106585;28;20317;-69
2021/12/31 04:47:25;;;;;;;9.97;3.13;;;;;;;12.36;95.25;101548.75;2097573;28;20189;-67
2021/12/31 04:48:25;;;;;;;5.53;3.03;;;;;;;12.38;94.87;101545.25;2097609;28;20028;-64
2021/12/31 04:49:26;;;;;;;9.93;3.33;;;;;;;12.38;94.94;101550.47;2106551;28;20028;-66
2021/12/31 04:50:26;;;;;;;6.27;2.97;;;;;;;12.39;94.37;101546.94;2106625;28;20034;-66